You are not logged in, Click here to log in
ICAO: RJBB Country: 日本大阪灣東南部的泉州近海離岸5公里的人工島
Latitude: 34.4341 Longitude: 135.243
Total Arrivals: 188 Total Departures: 172
Latest Arrival: MM318 (RJAA-RJBB)CHU. CHUHAO Latest Departure: BR129 (RJBB-RCTP)ALAN. LIU
Scenery:
METAR : RJBB 250500Z 26008KT 9999 FEW025 SCT140 BKN/// 28/21 Q1011 NOSIG

関西国際空港 KIX